Ternholm — OWIM2 — position and weather

sailwx.info

Track history (hours):
 
Tides and Currents Weather Stations Pressure Air Temp Water Temp Dewpoint Dewpoint Depression Visibility Wind Speed Wind Dir Waves Ship Positions

Ternholm

Last reported at 2015-Aug-03 20:32 UTC. Time now 2015-Aug-03 21:26 UTC.
Position N 57°41' E 011°52'.

Length 141 m; draft 6.6 m.

Type: Ship (hazmat cat B). MMSI: 219076000.

Date/timePositionNaut miles runAvg speedWind from/ knotsBaromVisibWave heightAir tempDewpointWater temp
2015-Aug-03 20:32N 57°41' E 011°52'0 0.0
2015-Aug-03 19:32N 57°41' E 011°52'0 0.0
2015-Aug-03 18:32N 57°41' E 011°52'0 0.0
2015-Aug-03 17:32N 57°41' E 011°52'0 0.2
2015-Aug-03 16:32N 57°41' E 011°53'0 0.0
2015-Aug-03 15:32N 57°41' E 011°53'0 0.0
2015-Aug-03 14:32N 57°41' E 011°53'0 0.0
2015-Aug-03 13:32N 57°41' E 011°53'0 0.0
2015-Aug-03 12:32N 57°41' E 011°53'0 0.0
2015-Aug-03 11:32N 57°41' E 011°53'0 0.0
2015-Aug-03 10:32N 57°41' E 011°53'0 0.0
2015-Aug-03 09:32N 57°41' E 011°53'0 0.0
2015-Aug-03 08:32N 57°41' E 011°53'0 0.0
2015-Aug-03 07:32N 57°41' E 011°53'0 0.0
2015-Aug-03 06:32N 57°41' E 011°53'0 0.0
2015-Aug-03 05:32N 57°41' E 011°53'0 0.0
2015-Aug-03 04:32N 57°41' E 011°53'0 0.0
2015-Aug-03 03:32N 57°41' E 011°53'0 0.0
2015-Aug-03 02:32N 57°41' E 011°53'0 0.0
2015-Aug-03 01:32N 57°41' E 011°53'0 0.0
2015-Aug-03 00:32N 57°41' E 011°53'0 0.0
2015-Aug-02 23:32N 57°41' E 011°53'0 0.0
2015-Aug-02 22:32N 57°41' E 011°53'0 0.0
2015-Aug-02 21:32N 57°41' E 011°53'0 0.0
2015-Aug-02 20:32N 57°41' E 011°53'0 0.0
2015-Aug-02 19:32N 57°41' E 011°53'0 0.0
2015-Aug-02 18:32N 57°41' E 011°53'0 0.0
2015-Aug-02 17:32N 57°41' E 011°53'0 0.0
2015-Aug-02 16:31N 57°41' E 011°53'0 0.0
2015-Aug-02 15:31N 57°41' E 011°53'0 0.0
2015-Aug-02 14:31N 57°41' E 011°53'0 0.0
2015-Aug-02 13:31N 57°41' E 011°53'0 0.1
2015-Aug-02 12:34N 57°41' E 011°53'9 8.8
2015-Aug-02 11:34N 57°36' E 011°40'1 0.6
2015-Aug-02 10:32N 57°35' E 011°40'0 0.0
2015-Aug-02 09:32N 57°35' E 011°40'0 0.0
2015-Aug-02 08:31N 57°35' E 011°40'0 0.0
2015-Aug-02 07:31N 57°35' E 011°40'0 0.0
2015-Aug-02 06:31N 57°35' E 011°40'0 0.0
2015-Aug-02 05:31N 57°35' E 011°40'0 0.0
2015-Aug-02 04:31N 57°35' E 011°40'4 4.5
2015-Aug-02 03:33N 57°31' E 011°38'1312.5
2015-Aug-02 02:33N 57°20' E 011°46'1212.5
2015-Aug-02 01:33N 57°09' E 011°58'1312.6
2015-Aug-02 00:33N 56°57' E 012°05'1312.6
2015-Aug-01 23:33N 56°45' E 012°10'1312.6
2015-Aug-01 22:33N 56°32' E 012°14'1312.6
2015-Aug-01 21:33N 56°20' E 012°18'1312.6
2015-Aug-01 20:33N 56°09' E 012°30'1212.1
2015-Aug-01 19:34N 55°59' E 012°42'1312.5
2015-Aug-01 18:33N 55°47' E 012°48'1010.2
2015-Aug-01 17:33N 55°37' E 012°54'1010.2
2015-Aug-01 16:33N 55°29' E 012°43'1111.2
2015-Aug-01 15:33N 55°18' E 012°43'1212.1
2015-Aug-01 14:33N 55°15' E 013°04'1212.3
2015-Aug-01 13:33N 55°15' E 013°26'1212.0
2015-Aug-01 12:33N 55°14' E 013°47'1212.0
2015-Aug-01 11:33N 55°14' E 014°08'1110.8
2015-Aug-01 10:33N 55°19' E 014°24'1211.6
2015-Aug-01 09:33N 55°28' E 014°38'1211.8
2015-Aug-01 08:33N 55°33' E 014°56'1211.9
2015-Aug-01 07:33N 55°39' E 015°15'10211.2
2015-Jul-31 22:28N 56°55' E 017°18'1311.8
2015-Jul-31 21:20N 57°07' E 017°27'911.8
2015-Jul-31 20:33N 57°16' E 017°33'1211.8
2015-Jul-31 19:33N 57°27' E 017°40'  
2015-Jul-27 23:17N 57°29' E 017°50'811.7
2015-Jul-27 22:33N 57°21' E 017°43'1211.7
2015-Jul-27 21:31N 57°10' E 017°35'1111.5
2015-Jul-27 20:34N 56°60' E 017°28'1211.5
2015-Jul-27 19:33N 56°49' E 017°21'1211.7
2015-Jul-27 18:33N 56°38' E 017°13'1211.7
2015-Jul-27 17:33N 56°27' E 017°06'51 9.9
2015-Jul-27 12:26N 55°50' E 016°03'1413.7
2015-Jul-27 11:24N 55°44' E 015°41'1111.8
2015-Jul-27 10:26N 55°38' E 015°23'1011.8
2015-Jul-27 09:34N 55°33' E 015°07'1211.8
2015-Jul-27 08:33N 55°27' E 014°49'1211.6
2015-Jul-27 07:33N 55°20' E 014°33'1211.8
2015-Jul-27 06:33N 55°10' E 014°21'1211.9
2015-Jul-27 05:34N 55°01' E 014°08'1211.8
2015-Jul-27 04:33N 54°57' E 013°48'1211.8
2015-Jul-27 03:33N 54°54' E 013°28'2411.6
2015-Jul-27 01:30N 54°47' E 012°49'1511.5
2015-Jul-27 00:09N 54°39' E 012°26'711.3
2015-Jul-26 23:33N 54°34' E 012°18'1111.1
2015-Jul-26 22:34N 54°24' E 012°08'1211.8
2015-Jul-26 21:34N 54°25' E 011°48'1211.8
2015-Jul-26 20:34N 54°30' E 011°29'1211.9
2015-Jul-26 19:34N 54°35' E 011°11'1311.8
2015-Jul-26 18:29N 54°42' E 010°52'1111.6
2015-Jul-26 17:32N 54°53' E 010°53'1111.3
2015-Jul-26 16:33N 55°03' E 011°02'1111.4
2015-Jul-26 15:34N 55°14' E 011°06'1211.6
2015-Jul-26 14:30N 55°25' E 010°58'35 1.0
2015-Jul-25 04:21N 55°38' E 010°01'28 9.9
2015-Jul-25 01:32N 55°34' E 010°50'1111.5
2015-Jul-25 00:33N 55°24' E 010°60'1111.2
2015-Jul-24 23:33N 55°14' E 011°06'1111.3
2015-Jul-24 22:32N 55°03' E 011°02'1110.9
2015-Jul-24 21:33N 54°53' E 010°54'1111.2
2015-Jul-24 20:33N 54°42' E 010°54'  
Track history (hours):
 
Tides and Currents Weather Stations Pressure Air Temp Water Temp Dewpoint Dewpoint Depression Visibility Wind Speed Wind Dir Waves Ship Positions

Ternholm

Last reported at 2015-Aug-03 20:32 UTC. Time now 2015-Aug-03 21:26 UTC.
Position N 57°41' E 011°52'.

Length 141 m; draft 6.6 m.

Type: Ship (hazmat cat B). MMSI: 219076000.

Date/timePositionNaut miles runAvg speedWind from/ knotsBaromVisibWave heightAir tempDewpointWater temp
2015-Aug-03 20:32N 57°41' E 011°52'0 0.0
2015-Aug-03 19:32N 57°41' E 011°52'0 0.0
2015-Aug-03 18:32N 57°41' E 011°52'0 0.0
2015-Aug-03 17:32N 57°41' E 011°52'0 0.2
2015-Aug-03 16:32N 57°41' E 011°53'0 0.0
2015-Aug-03 15:32N 57°41' E 011°53'0 0.0
2015-Aug-03 14:32N 57°41' E 011°53'0 0.0
2015-Aug-03 13:32N 57°41' E 011°53'0 0.0
2015-Aug-03 12:32N 57°41' E 011°53'0 0.0
2015-Aug-03 11:32N 57°41' E 011°53'0 0.0
2015-Aug-03 10:32N 57°41' E 011°53'0 0.0
2015-Aug-03 09:32N 57°41' E 011°53'0 0.0
2015-Aug-03 08:32N 57°41' E 011°53'0 0.0
2015-Aug-03 07:32N 57°41' E 011°53'0 0.0
2015-Aug-03 06:32N 57°41' E 011°53'0 0.0
2015-Aug-03 05:32N 57°41' E 011°53'0 0.0
2015-Aug-03 04:32N 57°41' E 011°53'0 0.0
2015-Aug-03 03:32N 57°41' E 011°53'0 0.0
2015-Aug-03 02:32N 57°41' E 011°53'0 0.0
2015-Aug-03 01:32N 57°41' E 011°53'0 0.0
2015-Aug-03 00:32N 57°41' E 011°53'0 0.0
2015-Aug-02 23:32N 57°41' E 011°53'0 0.0
2015-Aug-02 22:32N 57°41' E 011°53'0 0.0
2015-Aug-02 21:32N 57°41' E 011°53'0 0.0
2015-Aug-02 20:32N 57°41' E 011°53'0 0.0
2015-Aug-02 19:32N 57°41' E 011°53'0 0.0
2015-Aug-02 18:32N 57°41' E 011°53'0 0.0
2015-Aug-02 17:32N 57°41' E 011°53'0 0.0
2015-Aug-02 16:31N 57°41' E 011°53'0 0.0
2015-Aug-02 15:31N 57°41' E 011°53'0 0.0
2015-Aug-02 14:31N 57°41' E 011°53'0 0.0
2015-Aug-02 13:31N 57°41' E 011°53'0 0.1
2015-Aug-02 12:34N 57°41' E 011°53'9 8.8
2015-Aug-02 11:34N 57°36' E 011°40'1 0.6
2015-Aug-02 10:32N 57°35' E 011°40'0 0.0
2015-Aug-02 09:32N 57°35' E 011°40'0 0.0
2015-Aug-02 08:31N 57°35' E 011°40'0 0.0
2015-Aug-02 07:31N 57°35' E 011°40'0 0.0
2015-Aug-02 06:31N 57°35' E 011°40'0 0.0
2015-Aug-02 05:31N 57°35' E 011°40'0 0.0
2015-Aug-02 04:31N 57°35' E 011°40'4 4.5
2015-Aug-02 03:33N 57°31' E 011°38'1312.5
2015-Aug-02 02:33N 57°20' E 011°46'1212.5
2015-Aug-02 01:33N 57°09' E 011°58'1312.6
2015-Aug-02 00:33N 56°57' E 012°05'1312.6
2015-Aug-01 23:33N 56°45' E 012°10'1312.6
2015-Aug-01 22:33N 56°32' E 012°14'1312.6
2015-Aug-01 21:33N 56°20' E 012°18'1312.6
2015-Aug-01 20:33N 56°09' E 012°30'1212.1
2015-Aug-01 19:34N 55°59' E 012°42'1312.5
2015-Aug-01 18:33N 55°47' E 012°48'1010.2
2015-Aug-01 17:33N 55°37' E 012°54'1010.2
2015-Aug-01 16:33N 55°29' E 012°43'1111.2
2015-Aug-01 15:33N 55°18' E 012°43'1212.1
2015-Aug-01 14:33N 55°15' E 013°04'1212.3
2015-Aug-01 13:33N 55°15' E 013°26'1212.0
2015-Aug-01 12:33N 55°14' E 013°47'1212.0
2015-Aug-01 11:33N 55°14' E 014°08'1110.8
2015-Aug-01 10:33N 55°19' E 014°24'1211.6
2015-Aug-01 09:33N 55°28' E 014°38'1211.8
2015-Aug-01 08:33N 55°33' E 014°56'1211.9
2015-Aug-01 07:33N 55°39' E 015°15'10211.2
2015-Jul-31 22:28N 56°55' E 017°18'1311.8
2015-Jul-31 21:20N 57°07' E 017°27'911.8
2015-Jul-31 20:33N 57°16' E 017°33'1211.8
2015-Jul-31 19:33N 57°27' E 017°40'  
2015-Jul-27 23:17N 57°29' E 017°50'811.7
2015-Jul-27 22:33N 57°21' E 017°43'1211.7
2015-Jul-27 21:31N 57°10' E 017°35'1111.5
2015-Jul-27 20:34N 56°60' E 017°28'1211.5
2015-Jul-27 19:33N 56°49' E 017°21'1211.7
2015-Jul-27 18:33N 56°38' E 017°13'1211.7
2015-Jul-27 17:33N 56°27' E 017°06'51 9.9
2015-Jul-27 12:26N 55°50' E 016°03'1413.7
2015-Jul-27 11:24N 55°44' E 015°41'1111.8
2015-Jul-27 10:26N 55°38' E 015°23'1011.8
2015-Jul-27 09:34N 55°33' E 015°07'1211.8
2015-Jul-27 08:33N 55°27' E 014°49'1211.6
2015-Jul-27 07:33N 55°20' E 014°33'1211.8
2015-Jul-27 06:33N 55°10' E 014°21'1211.9
2015-Jul-27 05:34N 55°01' E 014°08'1211.8
2015-Jul-27 04:33N 54°57' E 013°48'1211.8
2015-Jul-27 03:33N 54°54' E 013°28'2411.6
2015-Jul-27 01:30N 54°47' E 012°49'1511.5
2015-Jul-27 00:09N 54°39' E 012°26'711.3
2015-Jul-26 23:33N 54°34' E 012°18'1111.1
2015-Jul-26 22:34N 54°24' E 012°08'1211.8
2015-Jul-26 21:34N 54°25' E 011°48'1211.8
2015-Jul-26 20:34N 54°30' E 011°29'1211.9
2015-Jul-26 19:34N 54°35' E 011°11'1311.8
2015-Jul-26 18:29N 54°42' E 010°52'1111.6
2015-Jul-26 17:32N 54°53' E 010°53'1111.3
2015-Jul-26 16:33N 55°03' E 011°02'1111.4
2015-Jul-26 15:34N 55°14' E 011°06'1211.6
2015-Jul-26 14:30N 55°25' E 010°58'35 1.0
2015-Jul-25 04:21N 55°38' E 010°01'28 9.9
2015-Jul-25 01:32N 55°34' E 010°50'1111.5
2015-Jul-25 00:33N 55°24' E 010°60'1111.2
2015-Jul-24 23:33N 55°14' E 011°06'1111.3
2015-Jul-24 22:32N 55°03' E 011°02'1110.9
2015-Jul-24 21:33N 54°53' E 010°54'1111.2
2015-Jul-24 20:33N 54°42' E 010°54'  

Dump ship's entire track history